Allendale, Michigan
Current Conditions -  °F | °C
As of 8:53 AM on Monday 22 Dec 2014 (Local Time) from KBIV Reporting Station
Haze Haze  
Wind Chill: 22°   Ceiling: Unl
Heat Index: 30°   Visibility: 6mi
Dew Point: 23°   Wind: 9mph
Humidity: 75%   Direction: 90°E
Pressure: 29.99"   Gusts: NA
Location:  42.97°N, 85.95°W
Report Text: KBIV 221353Z AUTO 09008KT 6SM HZ CLR M01/M05 A2999 RMK AO2 SLP165 T10111050
Loading
Personal Weather Stations






























Interactive Weather Map New forecast layout! Learn more

10-Day Weather Forecast

Advertisements
Track Severe Weather on mobile